Airfield :
LOGIN :

Register | Disclaimer

   EN    FR    IT 

 










Legend :    VFR   Marginal VFR   IFR   Intensive IFR   Very Intensive IFR
Visi :
Ceiling :
>= 8 km
>= 3000ft
5 to 8 km
1000 to 3000 ft
1500m to 5 km
500 to 1000 ft
800 to 1500m
200 to 500 ft
< 800m
< 200 ft
Symbols :   Thunderstorms  Fog  Heavy snow  Heavy precipitations  Wind > 20 kt
SIGMETs :     Misc.  Thunderstorms  Icing  Turbulence  Mountain Waves  Volcanic Ashes






- Airport Elevation : 19 ft
- IATA code : VAA


EFVA - Vaasa

CURRENT METAR :
  • 171720Z AUTO 21015KT 9999 OVC041 05/01 Q0975

EXPIRED METARs :
  • 171650Z AUTO 22016KT 9999 OVC046 05/01 Q0975
  • 171620Z AUTO 21015KT 9999 OVC045 05/01 Q0975
  • 171550Z AUTO 20013KT 9999 OVC044 05/01 Q0975
  • 171520Z AUTO 20012KT 9999 OVC043 05/00 Q0975
  • 171450Z AUTO 21015KT 9999 BKN043 05/01 Q0975

TAF TAF EFVA
Valid from the 17 at 18:00 until the 18 at 18:00 UTC


171727Z 1718/1818 23015KT 9999 BKN040
TEMPO 1718/1720 21015G30KT
TEMPO 1720/1801 21015G27KT 7000 BKN012



MET'MAP, your aeronautical weather chart ! - Copyright ORBIFLY December 2007 - Disclaimer

ORBIFLY MET'MAP TEAM :

Programming & Development : Alexandra Zaïnal
Concept & original design : Baudouin d'Aumeries
Assistance for programming : Marc-Olivier Méhu
Technical & hardware support : Manuel Goepfert

Contact : metmap@orbifly.com




SOURCES & CREDITS :

   NOAA